Time;durP1;ratioP1;P1;durP2;ratioP2;P2;SDS_P1;SDS_P2;PMS_P1;PMS_P2;Temp;Humidity;BMP_temperature;BMP_pressure;BME280_temperature;BME280_humidity;BME280_pressure;Samples;Min_cycle;Max_cycle;Signal;HPM_P1;HPM_P2
2022/03/04 00:00:09;;;;;;;15.90;8.95;;;0.70;99.90;;;;;;4992320;28;20430;-63
2022/03/04 00:02:36;;;;;;;15.60;8.85;;;0.70;99.90;;;;;;4992401;28;20057;-66
2022/03/04 00:05:02;;;;;;;20.77;9.57;;;0.70;99.90;;;;;;4993067;28;20494;-64
2022/03/04 00:07:28;;;;;;;16.17;9.02;;;0.70;99.90;;;;;;4983409;28;20035;-64
2022/03/04 00:09:54;;;;;;;14.80;8.82;;;0.60;99.90;;;;;;4992374;28;20042;-65
2022/03/04 00:12:20;;;;;;;19.35;8.90;;;0.60;99.90;;;;;;4990873;28;20053;-65
2022/03/04 00:14:46;;;;;;;14.32;8.80;;;0.60;99.90;;;;;;4972810;28;20074;-63
2022/03/04 00:17:12;;;;;;;14.60;8.35;;;0.50;99.90;;;;;;4973671;28;20098;-66
2022/03/04 00:19:38;;;;;;;15.13;8.48;;;0.50;99.90;;;;;;4991538;28;20542;-63
2022/03/04 00:22:05;;;;;;;17.58;8.77;;;0.50;99.90;;;;;;4993461;28;20074;-63
2022/03/04 00:24:30;;;;;;;17.20;9.90;;;0.50;99.90;;;;;;4976065;28;20058;-63
2022/03/04 00:26:56;;;;;;;14.90;8.73;;;0.50;99.90;;;;;;4972705;28;20055;-65
2022/03/04 00:29:22;;;;;;;15.93;8.52;;;0.50;99.90;;;;;;4988784;28;20050;-63
2022/03/04 00:31:47;;;;;;;17.02;9.13;;;0.40;99.90;;;;;;4990537;28;20042;-66
2022/03/04 00:34:13;;;;;;;16.83;9.10;;;0.40;99.90;;;;;;4965999;28;20035;-66
2022/03/04 00:36:39;;;;;;;15.15;9.70;;;0.30;99.90;;;;;;4995694;28;20060;-63
2022/03/04 00:39:08;;;;;;;19.30;9.57;;;0.30;99.90;;;;;;4996458;28;20056;-63
2022/03/04 00:41:34;;;;;;;17.85;9.00;;;0.30;99.90;;;;;;4992207;28;20069;-64
2022/03/04 00:43:59;;;;;;;14.85;8.73;;;0.30;99.90;;;;;;4995550;28;20054;-64
2022/03/04 00:46:25;;;;;;;17.45;9.73;;;0.20;99.90;;;;;;4996560;28;20050;-63
2022/03/04 00:48:51;;;;;;;23.05;10.27;;;0.30;99.90;;;;;;4984102;28;20046;-62
2022/03/04 00:51:17;;;;;;;17.77;9.57;;;0.20;99.90;;;;;;4995319;28;20382;-64
2022/03/04 00:53:43;;;;;;;16.35;9.23;;;0.20;99.90;;;;;;5011792;28;20421;-64
2022/03/04 00:56:10;;;;;;;17.17;8.93;;;0.20;99.90;;;;;;4994905;28;20050;-66
2022/03/04 00:58:36;;;;;;;17.10;9.30;;;0.10;99.90;;;;;;4994940;28;20058;-64
2022/03/04 01:01:04;;;;;;;18.67;10.00;;;0.10;99.90;;;;;;4996654;28;20095;-64
2022/03/04 01:03:29;;;;;;;17.23;9.75;;;0.10;99.90;;;;;;4982024;28;20055;-65
2022/03/04 01:05:55;;;;;;;16.80;9.07;;;0.10;99.90;;;;;;4995391;28;20482;-64
2022/03/04 01:08:21;;;;;;;20.60;10.98;;;0.10;99.90;;;;;;4994783;28;20074;-63
2022/03/04 01:10:47;;;;;;;15.85;9.02;;;0.10;99.90;;;;;;4995429;28;20089;-64
2022/03/04 01:13:13;;;;;;;18.20;9.70;;;0.10;99.90;;;;;;4994702;28;20437;-64
2022/03/04 01:15:39;;;;;;;19.83;9.70;;;0.00;99.90;;;;;;4977990;28;20034;-63
2022/03/04 01:18:05;;;;;;;16.88;9.68;;;0.00;99.90;;;;;;4993948;28;20044;-63
2022/03/04 01:20:31;;;;;;;20.60;10.07;;;-0.10;99.90;;;;;;4994549;28;20042;-64
2022/03/04 01:22:57;;;;;;;17.58;9.73;;;-0.10;99.90;;;;;;4994691;28;20034;-63
2022/03/04 01:25:23;;;;;;;17.42;9.35;;;-0.10;99.90;;;;;;4994541;28;20125;-65
2022/03/04 01:27:48;;;;;;;19.45;9.65;;;-0.10;99.90;;;;;;4994468;28;20142;-64
2022/03/04 01:30:14;;;;;;;16.65;10.10;;;-0.10;99.90;;;;;;4993615;28;20042;-65
2022/03/04 01:32:40;;;;;;;16.67;9.55;;;-0.10;99.90;;;;;;4995249;28;20057;-65
2022/03/04 01:35:08;;;;;;;18.50;9.85;;;-0.10;99.90;;;;;;4995274;28;20185;-64
2022/03/04 01:37:34;;;;;;;19.42;9.98;;;-0.20;99.90;;;;;;4994140;28;20102;-64
2022/03/04 01:39:59;;;;;;;18.38;10.00;;;-0.20;99.90;;;;;;4996263;28;20149;-63
2022/03/04 01:42:25;;;;;;;20.38;9.80;;;-0.20;99.90;;;;;;4985430;28;20173;-63
2022/03/04 01:44:50;;;;;;;19.10;10.82;;;-0.30;99.90;;;;;;4994329;28;20054;-65
2022/03/04 01:47:16;;;;;;;20.23;10.07;;;-0.30;99.90;;;;;;4992965;28;20512;-64
2022/03/04 01:49:41;;;;;;;22.75;11.20;;;-0.30;99.90;;;;;;4994278;28;20050;-64
2022/03/04 01:52:08;;;;;;;21.15;11.55;;;-0.30;99.90;;;;;;4995091;28;20061;-64
2022/03/04 01:54:34;;;;;;;21.90;10.95;;;-0.30;99.90;;;;;;4993877;28;20501;-66
2022/03/04 01:57:00;;;;;;;21.10;9.95;;;-0.30;99.90;;;;;;4993044;28;20042;-66
2022/03/04 01:59:26;;;;;;;20.50;10.13;;;-0.30;99.90;;;;;;4995335;28;20368;-65
2022/03/04 02:01:53;;;;;;;19.90;10.38;;;-0.30;99.90;;;;;;4993958;28;20355;-63
2022/03/04 02:04:25;;;;;;;18.35;10.73;;;-0.30;99.90;;;;;;4994024;28;20046;-65
2022/03/04 02:06:51;;;;;;;;;;;-0.30;99.90;;;;;;4996035;28;20050;-65
2022/03/04 02:09:17;;;;;;;19.33;10.43;;;-0.30;99.90;;;;;;4994120;28;19924;-66
2022/03/04 02:11:44;;;;;;;19.95;10.93;;;-0.40;99.90;;;;;;4986182;28;20054;-65
2022/03/04 02:14:13;;;;;;;21.17;11.55;;;-0.40;99.90;;;;;;4989622;28;20053;-64
2022/03/04 02:16:44;;;;;;;22.58;11.45;;;-0.40;99.90;;;;;;4993197;28;20053;-64
2022/03/04 02:19:10;;;;;;;23.45;10.90;;;-0.40;99.90;;;;;;4993937;28;20411;-64
2022/03/04 02:21:36;;;;;;;18.73;10.70;;;-0.40;99.90;;;;;;4992819;28;20061;-64
2022/03/04 02:24:04;;;;;;;21.77;11.77;;;-0.40;99.90;;;;;;4993985;28;20134;-63
2022/03/04 02:26:29;;;;;;;22.80;11.75;;;-0.40;99.90;;;;;;4992358;28;20471;-65
2022/03/04 02:28:55;;;;;;;28.77;12.13;;;-0.50;99.90;;;;;;4993298;28;20046;-63
2022/03/04 02:31:21;;;;;;;23.08;11.68;;;-0.50;99.90;;;;;;4992889;28;20124;-66
2022/03/04 02:33:48;;;;;;;22.33;11.98;;;-0.50;99.90;;;;;;4993486;28;20046;-66
2022/03/04 02:36:14;;;;;;;26.20;12.15;;;-0.50;99.90;;;;;;4986525;28;20047;-64
2022/03/04 02:38:41;;;;;;;25.00;12.38;;;-0.60;99.90;;;;;;4993979;28;20490;-64
2022/03/04 02:41:07;;;;;;;24.77;12.55;;;-0.60;99.90;;;;;;4992464;28;20058;-64
2022/03/04 02:43:34;;;;;;;25.25;13.52;;;-0.60;99.90;;;;;;4993094;28;20056;-63
2022/03/04 02:46:00;;;;;;;22.20;12.38;;;-0.60;99.90;;;;;;4993454;28;20038;-65
2022/03/04 02:48:25;;;;;;;27.08;12.98;;;-0.60;99.90;;;;;;4992878;28;20167;-64
2022/03/04 02:50:51;;;;;;;25.38;13.20;;;-0.60;99.90;;;;;;4992551;28;20467;-64
2022/03/04 02:53:16;;;;;;;23.95;12.50;;;-0.60;99.90;;;;;;4992803;28;20038;-65
2022/03/04 02:55:42;;;;;;;27.42;13.48;;;-0.60;99.90;;;;;;4993911;28;20371;-66
2022/03/04 02:58:08;;;;;;;26.70;13.60;;;-0.60;99.90;;;;;;4992354;28;20050;-66
2022/03/04 03:00:34;;;;;;;28.15;13.70;;;-0.70;99.90;;;;;;4989561;28;20104;-64
2022/03/04 03:03:00;;;;;;;27.92;13.90;;;-0.70;99.90;;;;;;4992587;28;20479;-64
2022/03/04 03:05:25;;;;;;;25.10;12.50;;;-0.70;99.90;;;;;;4992074;28;20054;-64
2022/03/04 03:07:51;;;;;;;24.92;13.73;;;-0.70;99.90;;;;;;4992710;28;20066;-63
2022/03/04 03:10:17;;;;;;;28.27;12.63;;;-0.70;99.90;;;;;;4981232;28;20042;-65
2022/03/04 03:12:42;;;;;;;26.35;13.60;;;-0.70;99.90;;;;;;4992792;28;20129;-64
2022/03/04 03:15:10;;;;;;;29.95;14.18;;;-0.80;99.90;;;;;;4992116;28;20415;-65
2022/03/04 03:17:36;;;;;;;29.52;13.73;;;-0.80;99.90;;;;;;4992747;28;20371;-65
2022/03/04 03:20:04;;;;;;;25.70;13.35;;;-0.80;99.90;;;;;;4960436;28;20100;-67
2022/03/04 03:22:30;;;;;;;29.35;14.02;;;-0.80;99.90;;;;;;4993909;28;20434;-64
2022/03/04 03:24:55;;;;;;;24.60;12.90;;;-0.80;99.90;;;;;;4990924;28;20034;-64
2022/03/04 03:27:21;;;;;;;26.20;13.50;;;-0.90;99.90;;;;;;4991790;28;20112;-64
2022/03/04 03:29:46;;;;;;;29.17;13.70;;;-0.90;99.90;;;;;;4992472;28;20077;-65
2022/03/04 03:32:13;;;;;;;27.58;14.38;;;-1.00;99.90;;;;;;4991719;28;20058;-65
2022/03/04 03:34:40;;;;;;;27.70;13.50;;;-1.00;99.90;;;;;;4993748;28;20057;-63
2022/03/04 03:37:06;;;;;;;30.25;14.50;;;-1.00;99.90;;;;;;4993252;28;20563;-64
2022/03/04 03:39:32;;;;;;;32.00;13.68;;;-1.00;99.90;;;;;;4984204;28;20046;-65
2022/03/04 03:41:58;;;;;;;27.20;13.55;;;-1.00;99.90;;;;;;4991029;28;20053;-63
2022/03/04 03:44:23;;;;;;;30.13;13.98;;;-1.10;99.90;;;;;;4992552;28;20053;-64
2022/03/04 03:46:49;;;;;;;30.70;13.85;;;-1.10;99.90;;;;;;4992708;28;20050;-66
2022/03/04 03:49:15;;;;;;;30.55;13.68;;;-1.10;99.90;;;;;;4992456;28;20073;-64
2022/03/04 03:51:40;;;;;;;26.77;13.57;;;-1.20;99.90;;;;;;4992402;28;20054;-65
2022/03/04 03:54:06;;;;;;;26.98;12.65;;;-1.20;99.90;;;;;;4992467;28;20479;-66
2022/03/04 03:56:32;;;;;;;32.92;15.15;;;-1.30;99.90;;;;;;4987550;28;20494;-64
2022/03/04 03:58:57;;;;;;;30.88;14.82;;;-1.30;99.90;;;;;;4992265;28;20052;-64
2022/03/04 04:01:23;;;;;;;32.75;15.27;;;-1.30;99.90;;;;;;4991407;28;20050;-64
2022/03/04 04:03:49;;;;;;;30.55;14.93;;;-1.30;99.90;;;;;;4992135;28;20039;-63
2022/03/04 04:06:14;;;;;;;34.53;15.98;;;-1.30;99.90;;;;;;4989403;28;20054;-63
2022/03/04 04:08:40;;;;;;;35.22;16.25;;;-1.30;99.90;;;;;;4973253;28;20051;-66
2022/03/04 04:11:06;;;;;;;31.95;15.32;;;-1.30;99.90;;;;;;4995214;28;20054;-65
2022/03/04 04:13:32;;;;;;;37.97;16.63;;;-1.30;99.90;;;;;;4998376;28;20034;-63
2022/03/04 04:15:58;;;;;;;38.97;17.73;;;-1.30;99.90;;;;;;4998987;28;20364;-64
2022/03/04 04:18:24;;;;;;;32.55;17.02;;;-1.30;99.90;;;;;;4998519;28;20494;-64
2022/03/04 04:20:49;;;;;;;34.08;16.00;;;-1.30;99.90;;;;;;4998393;28;20050;-65
2022/03/04 04:23:15;;;;;;;34.45;16.90;;;-1.20;99.90;;;;;;4997412;28;20116;-65
2022/03/04 04:25:40;;;;;;;37.50;17.80;;;-1.20;99.90;;;;;;4998828;28;20137;-65
2022/03/04 04:28:06;;;;;;;34.08;17.45;;;-1.20;99.90;;;;;;4997971;28;20038;-63
2022/03/04 04:30:32;;;;;;;38.90;17.80;;;-1.20;99.90;;;;;;4998564;28;20057;-65
2022/03/04 04:32:57;;;;;;;42.50;17.38;;;-1.20;99.90;;;;;;4998397;28;20121;-64
2022/03/04 04:35:23;;;;;;;33.65;16.27;;;-1.20;99.90;;;;;;4997936;28;20398;-65
2022/03/04 04:37:49;;;;;;;39.78;17.73;;;-1.10;99.90;;;;;;4985130;28;20129;-65
2022/03/04 04:40:14;;;;;;;39.15;17.38;;;-1.20;99.90;;;;;;4988504;28;20123;-63
2022/03/04 04:42:40;;;;;;;40.33;17.42;;;-1.10;99.90;;;;;;4997673;28;20054;-64
2022/03/04 04:45:07;;;;;;;38.53;17.80;;;-1.10;99.90;;;;;;4998390;28;20064;-64
2022/03/04 04:47:33;;;;;;;33.78;16.27;;;-1.10;99.90;;;;;;4998638;28;20050;-64
2022/03/04 04:49:59;;;;;;;41.08;18.70;;;-1.10;99.90;;;;;;4998253;28;20416;-65
2022/03/04 04:52:24;;;;;;;37.90;17.35;;;-1.10;99.90;;;;;;4997539;28;20489;-64
2022/03/04 04:54:50;;;;;;;37.00;16.83;;;-1.10;99.90;;;;;;4997942;28;20046;-64
2022/03/04 04:57:15;;;;;;;33.88;16.83;;;-1.10;99.90;;;;;;4989839;28;20050;-64
2022/03/04 04:59:41;;;;;;;37.15;16.80;;;-1.00;99.90;;;;;;4991506;28;20058;-64
2022/03/04 05:02:06;;;;;;;33.92;15.90;;;-1.10;99.90;;;;;;4991296;28;20042;-64
2022/03/04 05:04:32;;;;;;;35.55;18.13;;;-1.00;99.90;;;;;;4998566;28;20105;-64
2022/03/04 05:06:58;;;;;;;37.33;17.45;;;-1.10;99.90;;;;;;4997258;28;20042;-64
2022/03/04 05:09:24;;;;;;;44.30;19.10;;;-1.00;99.90;;;;;;4998248;28;20371;-65
2022/03/04 05:11:49;;;;;;;33.75;16.67;;;-1.00;99.90;;;;;;4997163;28;20050;-64
2022/03/04 05:14:15;;;;;;;37.47;17.95;;;-1.00;99.90;;;;;;4981605;28;20038;-64
2022/03/04 05:16:41;;;;;;;38.33;17.88;;;-1.00;99.90;;;;;;4997807;28;20089;-64
2022/03/04 05:19:06;;;;;;;34.85;16.25;;;-1.00;99.90;;;;;;4997811;28;20479;-64
2022/03/04 05:21:32;;;;;;;37.42;17.25;;;-1.00;99.90;;;;;;4995129;28;20465;-64
2022/03/04 05:24:00;;;;;;;35.50;17.98;;;-1.00;99.90;;;;;;4995147;28;20054;-65
2022/03/04 05:26:28;;;;;;;39.08;17.58;;;-1.00;99.90;;;;;;4995580;28;20101;-64
2022/03/04 05:28:54;;;;;;;35.28;17.23;;;-1.00;99.90;;;;;;4995238;28;20057;-64
2022/03/04 05:31:20;;;;;;;34.45;16.33;;;-1.00;99.90;;;;;;4994581;28;20055;-65
2022/03/04 05:33:45;;;;;;;35.40;16.98;;;-1.00;99.90;;;;;;4994190;28;20050;-64
2022/03/04 05:36:11;;;;;;;37.67;18.65;;;-1.00;99.90;;;;;;4993469;28;20054;-64
2022/03/04 05:38:37;;;;;;;36.30;18.17;;;-0.90;99.90;;;;;;4994959;28;20050;-65
2022/03/04 05:41:02;;;;;;;38.60;18.80;;;-0.90;99.90;;;;;;4988378;28;20559;-63
2022/03/04 05:43:28;;;;;;;37.10;18.20;;;-0.90;99.90;;;;;;4987098;28;20054;-65
2022/03/04 05:45:54;;;;;;;35.28;17.02;;;-0.90;99.90;;;;;;4987224;28;20463;-64
2022/03/04 05:48:19;;;;;;;36.67;17.40;;;-0.90;99.90;;;;;;4988388;28;20046;-64
2022/03/04 05:50:45;;;;;;;34.30;16.70;;;-0.90;99.90;;;;;;4988349;28;20181;-63
2022/03/04 05:53:11;;;;;;;40.13;18.08;;;-0.90;99.90;;;;;;4987645;28;20057;-64
2022/03/04 05:55:37;;;;;;;32.95;16.70;;;-0.90;99.90;;;;;;4987004;28;20084;-65
2022/03/04 05:58:02;;;;;;;34.72;16.67;;;-0.90;99.90;;;;;;4984854;28;20077;-65
2022/03/04 06:00:28;;;;;;;31.60;15.73;;;-0.90;99.90;;;;;;4990729;28;20046;-66
2022/03/04 06:02:54;;;;;;;33.70;17.30;;;-0.90;99.90;;;;;;4993685;28;20379;-64
2022/03/04 06:05:21;;;;;;;32.70;16.25;;;-0.90;99.90;;;;;;4993455;28;20121;-64
2022/03/04 06:07:47;;;;;;;35.17;16.10;;;-0.90;99.90;;;;;;4994306;28;20078;-64
2022/03/04 06:10:12;;;;;;;33.45;16.25;;;-0.90;99.90;;;;;;4994429;28;20490;-63
2022/03/04 06:12:38;;;;;;;36.75;18.05;;;-0.90;99.90;;;;;;4993118;28;20081;-65
2022/03/04 06:15:04;;;;;;;38.38;17.38;;;-0.90;99.90;;;;;;4993635;28;20047;-63
2022/03/04 06:17:30;;;;;;;35.97;16.65;;;-0.90;99.90;;;;;;4995156;28;20046;-64
2022/03/04 06:19:55;;;;;;;34.15;17.67;;;-0.90;99.90;;;;;;4994285;28;20105;-66
2022/03/04 06:22:21;;;;;;;33.72;17.00;;;-0.90;99.90;;;;;;4988763;28;20085;-63
2022/03/04 06:24:47;;;;;;;37.10;17.52;;;-0.80;99.90;;;;;;4994390;28;20485;-63
2022/03/04 06:27:12;;;;;;;32.30;16.02;;;-0.80;99.90;;;;;;4993768;28;20123;-67
2022/03/04 06:29:38;;;;;;;32.95;16.75;;;-0.80;99.90;;;;;;4993973;28;20485;-65
2022/03/04 06:32:04;;;;;;;35.20;17.90;;;-0.80;99.90;;;;;;4992887;28;20062;-66
2022/03/04 06:34:29;;;;;;;31.27;17.58;;;-0.80;99.90;;;;;;4992987;28;20046;-65
2022/03/04 06:36:55;;;;;;;36.63;17.42;;;-0.80;99.90;;;;;;4988645;28;20069;-64
2022/03/04 06:39:21;;;;;;;33.72;17.20;;;-0.80;99.90;;;;;;4986627;28;20058;-65
2022/03/04 06:41:48;;;;;;;34.13;18.10;;;-0.80;99.90;;;;;;4976106;28;20458;-65
2022/03/04 06:44:14;;;;;;;34.03;16.63;;;-0.90;99.90;;;;;;4987486;28;20503;-64
2022/03/04 06:46:40;;;;;;;32.97;16.80;;;-0.90;99.90;;;;;;4981526;28;20060;-66
2022/03/04 06:49:10;;;;;;;34.25;16.83;;;-0.90;99.90;;;;;;4985547;28;20053;-68
2022/03/04 06:51:37;;;;;;;36.85;17.67;;;-0.90;99.90;;;;;;4988294;28;20054;-63
2022/03/04 06:54:03;;;;;;;36.33;18.17;;;-0.90;99.90;;;;;;4977402;28;20059;-65
2022/03/04 06:56:29;;;;;;;33.97;17.15;;;-0.80;99.90;;;;;;4981114;28;20050;-65
2022/03/04 06:58:54;;;;;;;35.20;17.17;;;-0.80;99.90;;;;;;4977752;28;20105;-64
2022/03/04 07:01:21;;;;;;;31.77;16.50;;;-0.70;99.90;;;;;;4992980;28;20074;-65
2022/03/04 07:03:47;;;;;;;37.55;17.95;;;-0.70;99.90;;;;;;4977257;28;20042;-64
2022/03/04 07:06:12;;;;;;;40.15;18.25;;;-0.70;99.90;;;;;;4985028;28;20051;-66
2022/03/04 07:08:38;;;;;;;37.63;18.48;;;-0.70;99.90;;;;;;4974190;28;20510;-65
2022/03/04 07:11:04;;;;;;;37.97;19.52;;;-0.70;99.90;;;;;;4973516;28;20054;-63
2022/03/04 07:13:30;;;;;;;38.67;18.63;;;-0.70;99.90;;;;;;4974567;28;20061;-65
2022/03/04 07:15:55;;;;;;;36.97;18.30;;;-0.70;99.90;;;;;;4977569;28;20065;-66
2022/03/04 07:18:23;;;;;;;34.60;17.45;;;-0.70;99.90;;;;;;4992970;28;20135;-65
2022/03/04 07:20:51;;;;;;;40.25;18.23;;;-0.60;99.90;;;;;;4988325;28;20050;-65
2022/03/04 07:23:17;;;;;;;36.65;18.75;;;-0.60;99.90;;;;;;4992765;28;20050;-66
2022/03/04 07:25:43;;;;;;;36.50;19.02;;;-0.60;99.90;;;;;;4992770;28;20057;-66
2022/03/04 07:28:08;;;;;;;37.80;18.15;;;-0.60;99.90;;;;;;4990043;28;20043;-65
2022/03/04 07:30:34;;;;;;;33.13;16.98;;;-0.60;99.90;;;;;;4993295;28;20045;-64
2022/03/04 07:33:02;;;;;;;34.15;17.08;;;-0.60;99.90;;;;;;4981452;28;20109;-64
2022/03/04 07:35:28;;;;;;;34.70;16.88;;;-0.50;99.90;;;;;;4990032;28;20042;-66
2022/03/04 07:37:54;;;;;;;33.45;17.27;;;-0.50;99.90;;;;;;4988200;28;20179;-65
2022/03/04 07:40:20;;;;;;;34.33;16.80;;;-0.50;99.90;;;;;;4982365;28;20047;-64
2022/03/04 07:42:45;;;;;;;35.88;16.95;;;-0.40;99.90;;;;;;4985866;28;20058;-65
2022/03/04 07:45:12;;;;;;;32.70;16.23;;;-0.40;99.90;;;;;;4986148;28;20438;-66
2022/03/04 07:47:39;;;;;;;34.70;16.90;;;-0.40;99.90;;;;;;4982945;28;20047;-65
2022/03/04 07:50:09;;;;;;;35.33;18.05;;;-0.50;99.90;;;;;;4982720;28;20113;-65
2022/03/04 07:52:36;;;;;;;33.60;16.65;;;-0.50;99.90;;;;;;4983681;28;20085;-66
2022/03/04 07:55:05;;;;;;;33.42;16.85;;;-0.50;99.90;;;;;;4984029;28;20058;-66
2022/03/04 07:57:31;;;;;;;39.05;18.42;;;-0.50;99.90;;;;;;4983279;28;20046;-65
2022/03/04 07:59:56;;;;;;;33.33;16.83;;;-0.50;99.90;;;;;;4974346;28;20380;-65
2022/03/04 08:02:22;;;;;;;32.83;16.38;;;-0.50;99.90;;;;;;4987244;28;20077;-64
2022/03/04 08:04:48;;;;;;;36.10;16.67;;;-0.40;99.90;;;;;;4990114;28;20164;-65
2022/03/04 08:07:13;;;;;;;31.73;16.15;;;-0.40;99.90;;;;;;4990312;28;20058;-65
2022/03/04 08:09:40;;;;;;;35.25;17.25;;;-0.40;99.90;;;;;;4990783;28;20057;-66
2022/03/04 08:12:06;;;;;;;33.45;17.40;;;-0.40;99.90;;;;;;4989933;28;20054;-64
2022/03/04 08:14:32;;;;;;;31.20;17.50;;;-0.40;99.90;;;;;;4991506;28;20475;-64
2022/03/04 08:16:58;;;;;;;33.75;16.52;;;-0.40;99.90;;;;;;4984261;28;20042;-66
2022/03/04 08:19:23;;;;;;;34.35;17.10;;;-0.30;99.90;;;;;;4969774;28;20054;-64
2022/03/04 08:21:49;;;;;;;32.80;17.65;;;-0.30;99.90;;;;;;4982865;28;20057;-65
2022/03/04 08:24:14;;;;;;;32.75;17.00;;;-0.20;99.90;;;;;;4989707;28;20540;-64
2022/03/04 08:26:41;;;;;;;34.35;16.83;;;-0.10;99.90;;;;;;4990721;28;20467;-65
2022/03/04 08:29:11;;;;;;;32.50;17.02;;;0.00;99.90;;;;;;4992217;28;20490;-64
2022/03/04 08:31:37;;;;;;;35.13;16.80;;;0.10;99.90;;;;;;4990507;28;20054;-64
2022/03/04 08:34:03;;;;;;;31.40;16.08;;;0.20;99.90;;;;;;4991446;28;20074;-65
2022/03/04 08:36:29;;;;;;;27.98;15.52;;;0.30;99.90;;;;;;4990250;28;20046;-64
2022/03/04 08:38:55;;;;;;;33.63;16.40;;;0.30;99.90;;;;;;4987802;28;20054;-65
2022/03/04 08:41:21;;;;;;;28.33;14.75;;;0.40;99.90;;;;;;4990182;28;20141;-66
2022/03/04 08:43:47;;;;;;;31.95;15.38;;;0.40;99.90;;;;;;4991993;28;20082;-65
2022/03/04 08:46:14;;;;;;;24.65;15.20;;;0.50;99.90;;;;;;4990471;28;20178;-64
2022/03/04 08:48:41;;;;;;;29.38;16.55;;;0.60;99.90;;;;;;4991764;28;20039;-64
2022/03/04 08:51:07;;;;;;;28.20;15.63;;;0.60;99.90;;;;;;4990800;28;20391;-65
2022/03/04 08:53:33;;;;;;;25.80;14.88;;;0.70;99.90;;;;;;4991992;28;20046;-63
2022/03/04 08:55:58;;;;;;;27.08;15.32;;;0.70;99.90;;;;;;4992352;28;20467;-66
2022/03/04 08:58:24;;;;;;;26.95;14.75;;;0.70;99.90;;;;;;4996468;28;20057;-64
2022/03/04 09:00:50;;;;;;;29.20;16.15;;;0.70;99.90;;;;;;4996341;28;20556;-65
2022/03/04 09:03:15;;;;;;;30.40;16.27;;;0.70;99.90;;;;;;4995286;28;20061;-64
2022/03/04 09:05:41;;;;;;;27.23;15.70;;;0.70;99.90;;;;;;4994725;28;20054;-65
2022/03/04 09:08:07;;;;;;;28.00;15.25;;;0.70;99.90;;;;;;4992650;28;20042;-65
2022/03/04 09:10:32;;;;;;;27.13;15.52;;;0.70;99.90;;;;;;4992917;28;20331;-64
2022/03/04 09:12:58;;;;;;;28.00;15.30;;;0.70;99.90;;;;;;4994548;28;20054;-63
2022/03/04 09:15:24;;;;;;;27.92;15.32;;;0.90;99.90;;;;;;4993038;28;20132;-67
2022/03/04 09:17:50;;;;;;;30.23;16.27;;;1.00;99.90;;;;;;4993328;28;20050;-67
2022/03/04 09:20:19;;;;;;;28.88;16.20;;;1.10;99.90;;;;;;4991381;28;20502;-63
2022/03/04 09:22:46;;;;;;;27.00;15.50;;;1.10;99.90;;;;;;4991103;28;20050;-63
2022/03/04 09:25:12;;;;;;;26.80;15.50;;;1.20;99.90;;;;;;4995581;28;20466;-64
2022/03/04 09:27:38;;;;;;;29.95;16.02;;;1.20;99.90;;;;;;4994158;28;20548;-65
2022/03/04 09:30:04;;;;;;;25.20;15.30;;;1.30;99.90;;;;;;4994959;28;20157;-64
2022/03/04 09:32:30;;;;;;;23.60;13.75;;;1.40;99.90;;;;;;4995256;28;20058;-64
2022/03/04 09:34:55;;;;;;;27.83;15.35;;;1.50;99.90;;;;;;4996062;28;20042;-64
2022/03/04 09:37:21;;;;;;;23.52;13.60;;;1.50;99.90;;;;;;4989379;28;20097;-64
2022/03/04 09:39:47;;;;;;;22.88;13.32;;;1.60;99.90;;;;;;4990769;28;20141;-66
2022/03/04 09:42:13;;;;;;;25.30;14.25;;;1.50;99.90;;;;;;4993781;28;20125;-65
2022/03/04 09:44:40;;;;;;;24.83;13.70;;;1.60;99.90;;;;;;4996285;28;20050;-65
2022/03/04 09:47:07;;;;;;;25.65;14.25;;;1.70;99.90;;;;;;4993527;28;20050;-65
2022/03/04 09:49:35;;;;;;;25.90;13.57;;;1.70;99.90;;;;;;4996156;28;20364;-67
2022/03/04 09:52:01;;;;;;;24.08;14.48;;;1.90;99.90;;;;;;4995222;28;20593;-66
2022/03/04 09:54:28;;;;;;;24.48;14.70;;;1.90;99.90;;;;;;4994716;28;20085;-65
2022/03/04 09:56:55;;;;;;;23.95;13.88;;;2.00;99.90;;;;;;4993871;28;20050;-66
2022/03/04 09:59:20;;;;;;;23.13;14.10;;;2.20;99.90;;;;;;4994137;28;20604;-64
2022/03/04 10:01:47;;;;;;;22.48;13.18;;;2.30;99.90;;;;;;4994946;28;20117;-64
2022/03/04 10:04:13;;;;;;;26.77;15.40;;;2.30;99.90;;;;;;4994107;28;20058;-66
2022/03/04 10:06:39;;;;;;;24.73;14.07;;;2.20;99.90;;;;;;4993815;28;20054;-64
2022/03/04 10:09:05;;;;;;;24.13;13.90;;;2.10;99.90;;;;;;4975499;28;20483;-65
2022/03/04 10:11:33;;;;;;;24.38;13.55;;;2.20;99.90;;;;;;4976477;28;20119;-65
2022/03/04 10:14:01;;;;;;;24.48;14.65;;;2.10;99.90;;;;;;4984613;28;20047;-65
2022/03/04 10:16:29;;;;;;;21.95;13.45;;;2.20;99.90;;;;;;4982473;28;20053;-65
2022/03/04 10:19:13;;;;;;;24.38;13.63;;;2.30;99.90;;;;;;4984098;28;20471;-66
2022/03/04 10:22:00;;;;;;;27.23;14.50;;;2.30;99.90;;;;;;4987406;28;20101;-65
2022/03/04 10:24:37;;;;;;;23.10;13.38;;;2.30;99.90;;;;;;4985435;28;20049;-64
2022/03/04 10:27:07;;;;;;;28.90;15.32;;;2.20;99.90;;;;;;4984045;28;20059;-64
2022/03/04 10:29:37;;;;;;;27.40;15.68;;;2.10;99.90;;;;;;4984867;28;20042;-64
2022/03/04 10:32:06;;;;;;;25.92;14.80;;;2.10;99.90;;;;;;4993862;28;20503;-64
2022/03/04 10:34:50;;;;;;;26.20;14.35;;;2.10;99.90;;;;;;4991311;28;20427;-65
2022/03/04 10:37:22;;;;;;;25.85;14.07;;;2.20;99.90;;;;;;4984727;28;20169;-65
2022/03/04 10:40:04;;;;;;;25.42;13.48;;;2.10;99.90;;;;;;4988297;28;20057;-65
2022/03/04 10:42:46;;;;;;;23.92;14.07;;;2.20;99.90;;;;;;4987390;28;20062;-65
2022/03/04 10:45:15;;;;;;;27.65;15.13;;;2.30;99.90;;;;;;4966027;28;20046;-64
2022/03/04 10:47:41;;;;;;;24.80;14.75;;;2.30;99.90;;;;;;4984084;28;20051;-66
2022/03/04 10:50:06;;;;;;;27.50;15.60;;;2.50;99.90;;;;;;4981860;28;20058;-64
2022/03/04 10:52:32;;;;;;;29.35;16.52;;;2.50;99.90;;;;;;4974264;28;20050;-65
2022/03/04 10:54:58;;;;;;;27.13;14.95;;;2.60;99.90;;;;;;4973686;28;20471;-66
2022/03/04 10:57:23;;;;;;;27.17;15.60;;;2.80;99.90;;;;;;4973622;28;20133;-64
2022/03/04 10:59:56;;;;;;;26.67;15.00;;;2.90;99.90;;;;;;4987490;28;20069;-64
2022/03/04 11:02:45;;;;;;;33.40;16.33;;;3.10;99.90;;;;;;4973794;28;20050;-64
2022/03/04 11:05:11;;;;;;;25.90;14.52;;;3.30;99.90;;;;;;4983138;28;20057;-65
2022/03/04 11:07:38;;;;;;;24.55;14.82;;;3.40;99.90;;;;;;4988828;28;20035;-65
2022/03/04 11:10:04;;;;;;;25.38;14.50;;;3.50;99.90;;;;;;4986502;28;20452;-65
2022/03/04 11:12:30;;;;;;;27.60;14.65;;;3.60;99.90;;;;;;4985727;28;20057;-64
2022/03/04 11:14:56;;;;;;;28.58;16.15;;;3.70;99.90;;;;;;4988000;28;20361;-65
2022/03/04 11:17:23;;;;;;;26.73;14.40;;;3.80;99.90;;;;;;4984492;28;20550;-64
2022/03/04 11:19:50;;;;;;;26.77;15.38;;;4.00;99.90;;;;;;4988960;28;20061;-65
2022/03/04 11:22:16;;;;;;;25.65;14.90;;;4.10;99.90;;;;;;4990237;28;20093;-63
2022/03/04 11:24:42;;;;;;;26.10;14.48;;;4.30;99.90;;;;;;4984240;28;20133;-65
2022/03/04 11:27:10;;;;;;;26.33;15.20;;;4.40;99.90;;;;;;4984941;28;20133;-64
2022/03/04 11:29:37;;;;;;;25.73;15.38;;;4.50;99.90;;;;;;4983360;28;20034;-65
2022/03/04 11:32:06;;;;;;;22.58;14.45;;;4.60;99.90;;;;;;4965821;28;20130;-65
2022/03/04 11:34:34;;;;;;;27.08;14.82;;;4.80;99.90;;;;;;4981209;28;20078;-63
2022/03/04 11:37:02;;;;;;;26.00;15.57;;;4.90;99.90;;;;;;4973902;28;20110;-64
2022/03/04 11:39:28;;;;;;;25.15;15.13;;;5.10;99.90;;;;;;4981170;28;20077;-64
2022/03/04 11:41:54;;;;;;;24.30;14.88;;;5.10;99.90;;;;;;4980868;28;20053;-64
2022/03/04 11:44:22;;;;;;;23.08;15.18;;;5.20;99.90;;;;;;4985211;28;20046;-65
2022/03/04 11:47:02;;;;;;;25.10;15.07;;;5.30;99.90;;;;;;4993005;28;20121;-65
2022/03/04 11:49:32;;;;;;;26.85;14.55;;;5.30;99.90;;;;;;4991653;28;20517;-64
2022/03/04 11:52:21;;;;;;;23.10;15.20;;;5.40;99.90;;;;;;4985832;28;20097;-65
2022/03/04 11:54:49;;;;;;;25.27;15.77;;;5.50;99.90;;;;;;4989894;28;20065;-67
2022/03/04 11:57:29;;;;;;;24.00;14.48;;;5.60;99.90;;;;;;4980135;28;20424;-64
2022/03/04 11:59:58;;;;;;;22.67;15.73;;;5.70;99.90;;;;;;4989750;28;20104;-64
2022/03/04 12:02:46;;;;;;;22.13;13.93;;;5.70;99.90;;;;;;4992353;28;20062;-62
2022/03/04 12:05:25;;;;;;;25.33;15.45;;;5.80;99.90;;;;;;4973924;28;20105;-65
2022/03/04 12:07:54;;;;;;;24.63;15.05;;;5.90;99.90;;;;;;4992080;28;20137;-65
2022/03/04 12:10:53;;;;;;;20.90;13.48;;;6.00;99.90;;;;;;4992348;28;20555;-63
2022/03/04 12:13:26;;;;;;;23.80;15.07;;;6.00;99.90;;;;;;4959650;28;20109;-64
2022/03/04 12:16:01;;;;;;;22.67;14.80;;;6.10;99.90;;;;;;4991783;28;20129;-66
2022/03/04 12:18:43;;;;;;;19.65;13.85;;;6.10;99.90;;;;;;4991932;28;20527;-64
2022/03/04 12:21:13;;;;;;;24.00;14.38;;;6.20;99.90;;;;;;4991287;28;20057;-68
2022/03/04 12:23:42;;;;;;;21.75;15.30;;;6.30;99.90;;;;;;4992440;28;20054;-63
2022/03/04 12:26:24;;;;;;;20.80;13.25;;;6.40;99.90;;;;;;4991759;28;20057;-65
2022/03/04 12:29:04;;;;;;;22.02;15.13;;;6.50;99.90;;;;;;4988141;28;20069;-66
2022/03/04 12:31:38;;;;;;;20.42;13.18;;;6.50;99.90;;;;;;4973658;28;20050;-64